LIMC/MXP METAR and TAF weather

Enter ICAO airport designator
Station Type Date Time Source
LIMC METAR 2024/06/15 22:50 UTC NOAA

LIMC 152250Z 03003KT 9999 BKN050 16/15 Q1011 NOSIG


Station Type Date Time Source
LIMC Decoded METAR 2024/06/15 22:50 UTC NOAA

Milano / Malpensa, Italy (LIMC) 45-37N 008-44E 211M
Jun 15, 2024 - 06:50 PM EDT / 2024.06.15 2250 UTC
Wind: from the NNE (030 degrees) at 3 MPH (3 KT):0
Visibility: greater than 7 mile(s):0
Sky conditions: mostly cloudy
Temperature: 60 F (16 C)
Dew Point: 59 F (15 C)
Relative Humidity: 93%
Pressure (altimeter): 29.85 in. Hg (1011 hPa)
ob: LIMC 152250Z 03003KT 9999 BKN050 16/15 Q1011 NOSIG
cycle: 23

Station Type Date Time Source
LIMC TAF 2024/06/15 18:21 UTC NOAA